This is the latest recevied weather packets stored in our database for station/object WX6HNX-6. If no packets are shown the sender has not sent any weather packets the latest 10 day(s).
| Time | Temp. | Humidity | Pressure | Rain* | Wind** | Luminosity | Snow |
|---|---|---|---|---|---|---|---|
| 1778027408 | 21.11° C | 49% | 1014.5 hPa | 0 mm | - | - | - |
| 1778027108 | 20.56° C | 49% | 1014.5 hPa | 0 mm | - | - | - |
| 1778026129 | 20.56° C | 50% | 1014.6 hPa | 0 mm | - | - | - |
| 1778025829 | 20.56° C | 50% | 1014.5 hPa | 0 mm | - | - | - |
| 1778023729 | 20.56° C | 49% | 1014.5 hPa | 0 mm | - | - | - |
| 1778023429 | 21.11° C | 48% | 1014.5 hPa | 0 mm | - | - | - |
| 1778020548 | 21.11° C | 47% | 1014.7 hPa | 0 mm | - | - | - |
| 1778019948 | 21.11° C | 47% | 1014.8 hPa | 0 mm | - | - | - |
| 1778019371 | 21.11° C | 46% | 1014.9 hPa | 0 mm | - | - | - |
| 1778019071 | 21.11° C | 48% | 1014.8 hPa | 0 mm | - | - | - |
| 1778016671 | 20° C | 53% | 1015.1 hPa | 0 mm | - | - | - |
| 1778016200 | 20° C | 54% | 1015.1 hPa | 0 mm | - | - | - |
| 1778015900 | 20.56° C | 53% | 1015.2 hPa | 0 mm | - | - | - |
| 1778015600 | 20.56° C | 53% | 1015.1 hPa | 0 mm | - | - | - |
| 1778015301 | 21.11° C | 51% | 1015.2 hPa | 0 mm | - | - | - |
| 1778015001 | 21.11° C | 52% | 1015.2 hPa | 0 mm | - | - | - |
| 1778013501 | 20.56° C | 54% | 1015.3 hPa | 0 mm | - | - | - |
| 1778013201 | 20° C | 54% | 1015.3 hPa | 0 mm | - | - | - |
| 1778012901 | 20° C | 56% | 1015.2 hPa | 0 mm | - | - | - |
| 1778012600 | 20° C | 55% | 1015.2 hPa | 0 mm | - | - | - |
| 1778012302 | 19.44° C | 56% | 1015.2 hPa | 0 mm | - | - | - |
| 1778012000 | 19.44° C | 57% | 1015.2 hPa | 0 mm | - | - | - |
| 1778011700 | 19.44° C | 57% | 1015.2 hPa | 0 mm | - | - | - |
| 1778011400 | 19.44° C | 58% | 1015.3 hPa | 0 mm | - | - | - |
| 1778011100 | 19.44° C | 58% | 1015.3 hPa | 0 mm | - | - | - |
* Rain latest hour (hover to see other rain measurements)
** Current wind speed in m/s (hover to see current wind gust speed)